Time;durP1;ratioP1;P1;durP2;ratioP2;P2;SDS_P1;SDS_P2;PMS_P1;PMS_P2;Temp;Humidity;BMP_temperature;BMP_pressure;BME280_temperature;BME280_humidity;BME280_pressure;Samples;Min_cycle;Max_cycle;Signal;HPM_P1;HPM_P2
2022/05/22 00:01:34;;;;;;;;;;;12.60;99.90;;;;;;2621631;47;19941;31
2022/05/22 00:04:12;;;;;;;;;;;12.60;99.90;;;;;;2701213;39;20458;31
2022/05/22 00:06:47;;;;;;;;;;;12.60;99.90;;;;;;2602772;54;19946;31
2022/05/22 00:09:21;;;;;;;;;;;12.60;99.90;;;;;;2602529;54;21243;31
2022/05/22 00:11:55;;;;;;;;;;;12.50;99.90;;;;;;2621157;47;19934;31
2022/05/22 00:14:30;;;;;;;;;;;12.50;99.90;;;;;;2621233;46;19934;31
2022/05/22 00:17:08;;;;;;;;;;;12.50;99.90;;;;;;2602891;54;19942;31
2022/05/22 00:19:44;;;;;;;;;;;12.50;99.90;;;;;;2602813;54;19935;31
2022/05/22 00:22:19;;;;;;;;;;;12.40;99.90;;;;;;2602651;54;19934;31
2022/05/22 00:24:53;;;;;;;;;;;12.40;99.90;;;;;;2602541;54;20741;31
2022/05/22 00:27:27;;;;;;;;;;;12.40;99.90;;;;;;2602379;54;19941;31
2022/05/22 00:30:00;;;;;;;;;;;12.40;99.90;;;;;;2621273;47;19942;31
2022/05/22 00:32:34;;;;;;;;;;;12.40;99.90;;;;;;2603574;54;19941;31
2022/05/22 00:35:11;;;;;;;;;;;12.40;99.90;;;;;;2622051;46;20042;31
2022/05/22 00:37:45;;;;;;;;;;;12.30;99.90;;;;;;2603604;54;19935;31
2022/05/22 00:40:19;;;;;;;;;;;12.30;99.90;;;;;;2603498;54;19941;31
2022/05/22 00:42:53;;;;;;;;;;;12.30;99.90;;;;;;2621757;46;20692;31
2022/05/22 00:45:27;;;;;;;;;;;12.20;99.90;;;;;;2621824;46;19935;31
2022/05/22 00:48:01;;;;;;;;;;;12.20;99.90;;;;;;2603433;54;19994;31
2022/05/22 00:50:39;;;;;;;;;;;12.20;99.90;;;;;;2603451;54;20751;31
2022/05/22 00:53:15;;;;;;;;;;;12.20;99.90;;;;;;2622209;46;19941;31
2022/05/22 00:55:49;;;;;;;;;;;12.20;99.90;;;;;;2603600;54;19941;31
2022/05/22 00:58:23;;;;;;;;;;;12.10;99.90;;;;;;2621774;46;19990;31
2022/05/22 01:00:58;;;;;;;;;;;12.10;99.90;;;;;;2603339;54;19947;31
2022/05/22 01:03:32;;;;;;;;;;;12.10;99.90;;;;;;2621763;46;19934;31
2022/05/22 01:06:09;;;;;;;;;;;12.00;99.90;;;;;;2603347;54;19943;31
2022/05/22 01:08:43;;;;;;;;;;;12.00;99.90;;;;;;2621931;46;20804;31
2022/05/22 01:11:17;;;;;;;;;;;12.00;99.90;;;;;;2603182;54;19957;31
2022/05/22 01:13:52;;;;;;;;;;;12.00;99.90;;;;;;2603404;54;19935;31
2022/05/22 01:16:27;;;;;;;;;;;11.90;99.90;;;;;;2603310;54;20726;31
2022/05/22 01:19:01;;;;;;;;;;;11.90;99.90;;;;;;2603374;54;20768;31
2022/05/22 01:21:42;;;;;;;;;;;11.90;99.90;;;;;;2603436;54;19935;31
2022/05/22 01:24:18;;;;;;;;;;;11.90;99.90;;;;;;2603275;54;19980;31
2022/05/22 01:26:53;;;;;;;;;;;11.90;99.90;;;;;;2603474;54;20045;31
2022/05/22 01:29:37;;;;;;;;;;;11.80;99.90;;;;;;2603421;54;20767;31
2022/05/22 01:32:11;;;;;;;;;;;11.80;99.90;;;;;;2621964;46;19970;31
2022/05/22 01:34:49;;;;;;;;;;;11.80;99.90;;;;;;2621727;46;19934;31
2022/05/22 01:37:23;;;;;;;;;;;11.80;99.90;;;;;;2603397;54;19935;31
2022/05/22 01:40:00;;;;;;;;;;;11.80;99.90;;;;;;2621930;46;19934;31
2022/05/22 01:42:34;;;;;;;;;;;11.70;99.90;;;;;;2621982;46;19993;31
2022/05/22 01:45:09;;;;;;;;;;;11.70;99.90;;;;;;2603455;54;20021;31
2022/05/22 01:47:43;;;;;;;;;;;11.70;99.90;;;;;;2621608;46;19935;31
2022/05/22 01:50:18;;;;;;;;;;;11.70;99.90;;;;;;2621605;46;20017;31
2022/05/22 01:52:52;;;;;;;;;;;11.60;99.90;;;;;;2603366;54;20755;31
2022/05/22 01:55:29;;;;;;;;;;;11.60;99.90;;;;;;2621685;46;19998;31
2022/05/22 01:58:06;;;;;;;;;;;11.60;99.90;;;;;;2603399;54;20021;31
2022/05/22 02:00:43;;;;;;;;;;;11.60;99.90;;;;;;2603344;54;20816;31
2022/05/22 02:03:17;;;;;;;;;;;11.60;99.90;;;;;;2603322;54;19982;31
2022/05/22 02:05:51;;;;;;;;;;;11.50;99.90;;;;;;2603470;54;20015;31
2022/05/22 02:08:26;;;;;;;;;;;11.50;99.90;;;;;;2603112;54;19935;31
2022/05/22 02:11:03;;;;;;;;;;;11.50;99.90;;;;;;2603104;54;19941;31
2022/05/22 02:13:37;;;;;;;;;;;11.40;99.90;;;;;;2603245;54;20744;31
2022/05/22 02:16:14;;;;;;;;;;;11.40;99.90;;;;;;2603228;54;20726;31
2022/05/22 02:18:49;;;;;;;;;;;11.30;99.90;;;;;;2621817;46;19941;31
2022/05/22 02:21:23;;;;;;;;;;;11.30;99.90;;;;;;2602912;54;19934;31
2022/05/22 02:23:57;;;;;;;;;;;11.20;99.90;;;;;;2621690;46;20021;31
2022/05/22 02:26:34;;;;;;;;;;;11.20;99.90;;;;;;2603054;54;20017;31
2022/05/22 02:29:11;;;;;;;;;;;11.20;99.90;;;;;;2603096;54;20689;31
2022/05/22 02:31:45;;;;;;;;;;;11.10;99.90;;;;;;2602903;54;19941;31
2022/05/22 02:34:19;;;;;;;;;;;11.10;99.90;;;;;;2701678;39;20312;31
2022/05/22 02:36:53;;;;;;;;;;;11.10;99.90;;;;;;2602982;54;21600;31
2022/05/22 02:39:28;;;;;;;;;;;11.10;99.90;;;;;;2602956;54;19954;31
2022/05/22 02:42:05;;;;;;;;;;;11.10;99.90;;;;;;2602974;54;20033;31
2022/05/22 02:44:42;;;;;;;;;;;11.00;99.90;;;;;;2602931;54;20012;31
2022/05/22 02:47:16;;;;;;;;;;;11.00;99.90;;;;;;2602930;54;19939;31
2022/05/22 02:49:50;;;;;;;;;;;11.00;99.90;;;;;;2602897;54;20673;31
2022/05/22 02:52:25;;;;;;;;;;;11.00;99.90;;;;;;2621387;46;19993;31
2022/05/22 02:55:00;;;;;;;;;;;11.00;99.90;;;;;;2621107;46;19941;31
2022/05/22 02:57:37;;;;;;;;;;;11.00;99.90;;;;;;2602865;54;19938;31
2022/05/22 03:00:19;;;;;;;;;;;11.10;99.90;;;;;;2603130;54;19934;31
2022/05/22 03:02:59;;;;;;;;;;;11.10;99.90;;;;;;2602786;54;19939;31
2022/05/22 03:08:22;;;;;;;;;;;11.00;99.90;;;;;;2621598;46;20745;31
2022/05/22 03:10:56;;;;;;;;;;;11.10;99.90;;;;;;2602047;54;19941;31
2022/05/22 03:13:31;;;;;;;;;;;11.10;99.90;;;;;;2602094;54;21343;31
2022/05/22 03:16:10;;;;;;;;;;;11.10;99.90;;;;;;2602034;54;20002;31
2022/05/22 03:19:01;;;;;;;;;;;11.10;99.90;;;;;;2602815;54;19943;31
2022/05/22 03:21:37;;;;;;;;;;;11.10;99.90;;;;;;2620539;46;20011;31
2022/05/22 03:24:14;;;;;;;;;;;11.20;99.90;;;;;;2701526;39;22149;31
2022/05/22 03:26:59;;;;;;;;;;;11.20;99.90;;;;;;2602953;54;20774;31
2022/05/22 03:29:33;;;;;;;;;;;11.30;99.90;;;;;;2602781;54;20085;31
2022/05/22 03:32:12;;;;;;;;;;;11.30;99.90;;;;;;2602877;54;20793;31
2022/05/22 03:34:48;;;;;;;;;;;11.40;99.90;;;;;;2602715;54;20650;31
2022/05/22 03:37:24;;;;;;;;;;;11.60;99.90;;;;;;2621288;46;20759;31
2022/05/22 03:40:08;;;;;;;;;;;11.70;99.90;;;;;;2602972;54;19960;31
2022/05/22 03:42:43;;;;;;;;;;;11.70;99.90;;;;;;2603004;54;19941;31
2022/05/22 03:45:18;;;;;;;;;;;11.70;99.90;;;;;;2602757;54;19990;31
2022/05/22 03:47:56;;;;;;;;;;;11.80;99.90;;;;;;2602956;54;20756;31
2022/05/22 03:50:34;;;;;;;;;;;11.80;99.90;;;;;;2602886;54;20674;31
2022/05/22 03:53:11;;;;;;;;;;;11.80;99.90;;;;;;2602044;54;20894;31
2022/05/22 03:55:51;;;;;;;;;;;11.80;99.90;;;;;;2607432;47;20025;31
2022/05/22 03:58:29;;;;;;;;;;;11.80;99.90;;;;;;2602713;54;19989;31
2022/05/22 04:01:06;;;;;;;;;;;11.80;99.90;;;;;;2602812;54;19934;31
2022/05/22 04:03:52;;;;;;;;;;;11.90;99.90;;;;;;2602847;54;20021;31
2022/05/22 04:06:30;;;;;;;;;;;11.90;99.90;;;;;;2602965;54;20792;31
2022/05/22 04:09:05;;;;;;;;;;;12.00;99.90;;;;;;2603703;54;19935;31
2022/05/22 04:12:01;;;;;;;;;;;12.00;99.90;;;;;;2702076;39;21324;31
2022/05/22 04:14:35;;;;;;;;;;;12.10;99.90;;;;;;2602695;54;19958;31
2022/05/22 04:17:14;;;;;;;;;;;12.20;99.90;;;;;;2617206;46;19943;31
2022/05/22 04:19:51;;;;;;;;;;;12.30;99.90;;;;;;2603543;54;19942;31
2022/05/22 04:22:30;;;;;;;;;;;12.30;99.90;;;;;;2621962;46;20848;31
2022/05/22 04:25:15;;;;;;;;;;;12.40;99.90;;;;;;2614497;46;20808;31
2022/05/22 04:27:50;;;;;;;;;;;12.40;99.90;;;;;;2622050;46;20721;31
2022/05/22 04:30:26;;;;;;;;;;;12.50;99.90;;;;;;2603481;54;20497;31
2022/05/22 04:33:09;;;;;;;;;;;12.50;99.90;;;;;;2622110;46;19935;31
2022/05/22 04:35:48;;;;;;;;;;;12.50;99.90;;;;;;2720565;39;21414;31
2022/05/22 04:38:23;;;;;;;;;;;12.60;99.90;;;;;;2622291;46;19935;31
2022/05/22 04:40:57;;;;;;;;;;;13.00;99.90;;;;;;2618657;46;19943;31
2022/05/22 04:43:32;;;;;;;;;;;13.30;99.90;;;;;;2603545;54;20761;31
2022/05/22 04:46:10;;;;;;;;;;;13.70;99.90;;;;;;2603576;54;19934;31
2022/05/22 04:48:48;;;;;;;;;;;14.10;99.90;;;;;;2603564;54;21506;31
2022/05/22 04:51:27;;;;;;;;;;;14.40;99.90;;;;;;2603495;54;20751;31
2022/05/22 04:54:03;;;;;;;;;;;14.70;99.90;;;;;;2603846;54;20768;31
2022/05/22 04:57:07;;;;;;;;;;;15.10;99.90;;;;;;2603446;54;19935;31
2022/05/22 04:59:43;;;;;;;;;;;15.40;99.90;;;;;;2603069;54;19949;31
2022/05/22 05:02:20;;;;;;;;;;;15.60;99.90;;;;;;2602954;54;19946;31
2022/05/22 05:05:01;;;;;;;;;;;15.80;99.90;;;;;;2602727;54;19934;31
2022/05/22 05:07:44;;;;;;;;;;;16.10;99.90;;;;;;2603504;54;20733;31
2022/05/22 05:10:50;;;;;;;;;;;16.40;99.90;;;;;;2603451;54;20727;31
2022/05/22 05:13:30;;;;;;;;;;;16.60;99.90;;;;;;2603393;54;20010;31
2022/05/22 05:16:08;;;;;;;;;;;16.90;99.90;;;;;;2622237;46;20731;31
2022/05/22 05:18:53;;;;;;;;;;;17.10;99.90;;;;;;2603441;54;19939;31
2022/05/22 05:21:30;;;;;;;;;;;17.10;99.90;;;;;;2603441;54;20645;31
2022/05/22 05:24:12;;;;;;;;;;;17.00;99.90;;;;;;2603547;54;19934;31
2022/05/22 05:26:50;;;;;;;;;;;16.90;99.90;;;;;;2621916;46;19934;31
2022/05/22 05:29:26;;;;;;;;;;;16.70;99.90;;;;;;2603581;54;20509;31
2022/05/22 05:32:00;;;;;;;;;;;16.40;99.90;;;;;;2603458;54;19934;31
2022/05/22 05:34:35;;;;;;;;;;;16.10;99.90;;;;;;2621843;46;19935;31
2022/05/22 05:37:20;;;;;;;;;;;15.90;99.90;;;;;;2603608;54;20758;31
2022/05/22 05:40:02;;;;;;;;;;;15.80;99.90;;;;;;2603533;54;20763;31
2022/05/22 05:42:48;;;;;;;;;;;15.90;99.90;;;;;;2621945;46;19942;31
2022/05/22 05:45:27;;;;;;;;;;;15.90;99.90;;;;;;2603589;54;19997;31
2022/05/22 05:48:07;;;;;;;;;;;16.10;99.90;;;;;;2603418;54;20647;31
2022/05/22 05:51:10;;;;;;;;;;;16.40;99.90;;;;;;2603332;54;19942;31
2022/05/22 05:53:50;;;;;;;;;;;16.80;99.90;;;;;;2621789;46;20013;31
2022/05/22 05:56:58;;;;;;;;;;;17.20;99.90;;;;;;2603570;54;19934;31
2022/05/22 05:59:39;;;;;;;;;;;17.50;99.90;;;;;;2603574;54;19935;31
2022/05/22 06:02:20;;;;;;;;;;;17.60;99.90;;;;;;2603543;54;19939;31
2022/05/22 06:04:59;;;;;;;;;;;17.90;99.90;;;;;;2620158;46;19935;31
2022/05/22 06:07:34;;;;;;;;;;;18.20;99.90;;;;;;2622036;46;20756;31
2022/05/22 06:10:14;;;;;;;;;;;18.40;99.90;;;;;;2603379;54;20016;31
2022/05/22 06:13:09;;;;;;;;;;;18.70;99.90;;;;;;2603265;54;19950;31
2022/05/22 06:15:51;;;;;;;;;;;18.90;99.90;;;;;;2602502;54;19948;31
2022/05/22 06:18:25;;;;;;;;;;;19.00;99.90;;;;;;2602448;54;19997;31
2022/05/22 06:21:10;;;;;;;;;;;19.10;99.90;;;;;;2603214;54;19954;31
2022/05/22 06:23:45;;;;;;;;;;;19.10;99.90;;;;;;2603417;54;19947;31
2022/05/22 06:26:41;;;;;;;;;;;19.20;99.90;;;;;;2603528;54;19934;31
2022/05/22 06:29:39;;;;;;;;;;;19.50;99.90;;;;;;2701655;39;21275;31
2022/05/22 06:32:34;;;;;;;;;;;19.50;99.90;;;;;;2603395;54;19946;31
2022/05/22 06:35:28;;;;;;;;;;;19.60;99.90;;;;;;2621592;46;19998;31
2022/05/22 06:41:42;;;;;;;;;;;19.80;99.90;;;;;;2603181;54;20643;31
2022/05/22 06:44:40;;;;;;;;;;;19.90;99.90;;;;;;2603164;54;19938;31
2022/05/22 06:47:37;;;;;;;;;;;19.80;99.90;;;;;;2603415;54;20001;31
2022/05/22 06:50:27;;;;;;;;;;;19.90;99.90;;;;;;2603335;54;20722;31
2022/05/22 06:53:12;;;;;;;;;;;19.90;99.90;;;;;;2602947;54;20597;31
2022/05/22 06:56:02;;;;;;;;;;;20.00;99.90;;;;;;2603471;54;19946;31
2022/05/22 06:58:42;;;;;;;;;;;20.10;99.90;;;;;;2603218;54;19941;31
2022/05/22 07:01:43;;;;;;;;;;;20.20;99.90;;;;;;2621937;46;19963;31
2022/05/22 07:04:29;;;;;;;;;;;20.40;99.90;;;;;;2621884;46;19947;31
2022/05/22 07:07:03;;;;;;;;;;;20.50;99.90;;;;;;2603451;54;19935;31
2022/05/22 07:09:47;;;;;;;;;;;20.20;99.90;;;;;;2603100;54;19934;31
2022/05/22 07:12:31;;;;;;;;;;;19.90;99.90;;;;;;2603194;54;19935;31
2022/05/22 07:15:41;;;;;;;;;;;19.70;99.90;;;;;;2602996;54;20747;31
2022/05/22 07:18:34;;;;;;;;;;;19.80;99.90;;;;;;2621548;46;19934;31
2022/05/22 07:21:27;;;;;;;;;;;19.60;99.90;;;;;;2603228;54;19958;31
2022/05/22 07:24:19;;;;;;;;;;;19.20;99.90;;;;;;2621574;46;19938;31
2022/05/22 07:27:14;;;;;;;;;;;18.90;99.90;;;;;;2603105;54;20765;31
2022/05/22 07:30:03;;;;;;;;;;;18.50;99.90;;;;;;2603243;54;19935;31
2022/05/22 07:32:57;;;;;;;;;;;18.20;99.90;;;;;;2621559;46;19958;31
2022/05/22 07:35:44;;;;;;;;;;;18.20;99.90;;;;;;2621630;46;19950;31
2022/05/22 07:38:51;;;;;;;;;;;17.90;99.90;;;;;;2602954;54;19993;31
2022/05/22 07:41:45;;;;;;;;;;;17.70;99.90;;;;;;2603150;54;19935;31
2022/05/22 07:44:41;;;;;;;;;;;17.60;99.90;;;;;;2602969;54;19942;31
2022/05/22 07:47:30;;;;;;;;;;;17.40;99.90;;;;;;2621674;46;20822;31
2022/05/22 07:50:21;;;;;;;;;;;17.30;99.90;;;;;;2603120;54;19935;31
2022/05/22 07:52:59;;;;;;;;;;;17.20;99.90;;;;;;2621565;46;19942;31
2022/05/22 07:55:49;;;;;;;;;;;17.20;99.90;;;;;;2602815;54;20051;31
2022/05/22 07:58:48;;;;;;;;;;;17.20;99.90;;;;;;2603106;54;19960;31
2022/05/22 08:01:49;;;;;;;;;;;17.40;99.90;;;;;;2602805;54;19934;31
2022/05/22 08:04:41;;;;;;;;;;;17.60;99.90;;;;;;2603102;54;20678;31
2022/05/22 08:07:35;;;;;;;;;;;18.00;99.90;;;;;;2602998;54;19935;31
2022/05/22 08:10:21;;;;;;;;;;;18.20;99.90;;;;;;2621460;47;20042;31
2022/05/22 08:13:03;;;;;;;;;;;18.40;99.90;;;;;;2621413;47;19989;31
2022/05/22 08:15:40;;;;;;;;;;;18.40;99.90;;;;;;2603017;54;20755;31
2022/05/22 08:18:30;;;;;;;;;;;18.70;99.90;;;;;;2602867;54;19939;31
2022/05/22 08:21:06;;;;;;;;;;;18.80;99.90;;;;;;2602076;54;19935;31
2022/05/22 08:23:51;;;;;;;;;;;18.90;99.90;;;;;;2602959;54;19935;31
2022/05/22 08:26:35;;;;;;;;;;;18.90;99.90;;;;;;2621460;47;20665;31
2022/05/22 08:29:13;;;;;;;;;;;18.80;99.90;;;;;;2602885;54;19942;31
2022/05/22 08:31:51;;;;;;;;;;;18.70;99.90;;;;;;2601911;54;19934;31
2022/05/22 08:34:25;;;;;;;;;;;18.70;99.90;;;;;;2620209;47;20660;31
2022/05/22 08:37:03;;;;;;;;;;;18.60;99.90;;;;;;2719291;39;20309;31
2022/05/22 08:39:37;;;;;;;;;;;18.50;99.90;;;;;;2620950;47;20713;31
2022/05/22 08:42:14;;;;;;;;;;;18.70;99.90;;;;;;2620811;47;20780;31
2022/05/22 08:44:54;;;;;;;;;;;19.10;99.90;;;;;;2621469;47;19961;31
2022/05/22 08:47:30;;;;;;;;;;;19.40;99.90;;;;;;2602670;54;19935;31
2022/05/22 08:50:06;;;;;;;;;;;19.80;99.90;;;;;;2621054;47;19935;31
2022/05/22 08:52:44;;;;;;;;;;;20.30;99.90;;;;;;2603408;54;20776;31
2022/05/22 08:55:20;;;;;;;;;;;20.50;99.90;;;;;;2621999;46;19935;31
2022/05/22 09:00:59;;;;;;;;;;;20.10;99.90;;;;;;2603753;54;19941;31
2022/05/22 09:03:35;;;;;;;;;;;19.80;99.90;;;;;;2622020;46;19935;31
2022/05/22 09:06:11;;;;;;;;;;;19.60;99.90;;;;;;2603332;54;20769;31
2022/05/22 09:08:56;;;;;;;;;;;19.50;99.90;;;;;;2603675;54;19934;31
2022/05/22 09:11:33;;;;;;;;;;;19.20;99.90;;;;;;2622382;46;19935;31
2022/05/22 09:14:11;;;;;;;;;;;19.00;99.90;;;;;;2621824;46;19939;31
2022/05/22 09:16:48;;;;;;;;;;;18.70;99.90;;;;;;2622035;46;19934;31
2022/05/22 09:19:26;;;;;;;;;;;18.40;99.90;;;;;;2603419;54;19939;31
2022/05/22 09:22:06;;;;;;;;;;;18.40;99.90;;;;;;2622245;46;20755;31
2022/05/22 09:24:42;;;;;;;;;;;18.30;99.90;;;;;;2603620;54;19956;31
2022/05/22 09:27:19;;;;;;;;;;;18.20;99.90;;;;;;2622310;46;20773;31
2022/05/22 09:29:59;;;;;;;;;;;18.20;99.90;;;;;;2622262;46;19986;31
2022/05/22 09:32:46;;;;;;;;;;;18.30;99.90;;;;;;2603531;54;20013;31
2022/05/22 09:35:29;;;;;;;;;;;18.60;99.90;;;;;;2621732;46;19958;31
2022/05/22 09:38:12;;;;;;;;;;;18.60;99.90;;;;;;2602656;54;19949;31
2022/05/22 09:40:53;;;;;;;;;;;18.70;99.90;;;;;;2603247;54;20782;31
2022/05/22 09:43:46;;;;;;;;;;;18.70;99.90;;;;;;2603310;54;19982;31
2022/05/22 09:46:32;;;;;;;;;;;18.70;99.90;;;;;;2622141;46;20751;31
2022/05/22 09:49:23;;;;;;;;;;;18.60;99.90;;;;;;2622004;46;20035;31
2022/05/22 09:52:01;;;;;;;;;;;18.50;99.90;;;;;;2603576;54;20749;31
2022/05/22 09:54:38;;;;;;;;;;;18.40;99.90;;;;;;2621741;46;19939;31
2022/05/22 09:57:35;;;;;;;;;;;18.40;99.90;;;;;;2720232;39;20328;31
2022/05/22 10:00:14;;;;;;;;;;;18.40;99.90;;;;;;2618507;46;21338;31
2022/05/22 10:02:52;;;;;;;;;;;18.60;99.90;;;;;;2602291;54;20010;31
2022/05/22 10:05:36;;;;;;;;;;;18.70;99.90;;;;;;2603457;54;20643;31
2022/05/22 10:08:14;;;;;;;;;;;18.80;99.90;;;;;;2603167;54;20739;31
2022/05/22 10:10:55;;;;;;;;;;;19.10;99.90;;;;;;2603411;54;19938;31
2022/05/22 10:13:36;;;;;;;;;;;19.10;99.90;;;;;;2602650;54;20736;31
2022/05/22 10:16:21;;;;;;;;;;;18.90;99.90;;;;;;2602992;54;19934;31
2022/05/22 10:18:58;;;;;;;;;;;18.80;99.90;;;;;;2621788;46;20730;31
2022/05/22 10:21:35;;;;;;;;;;;18.70;99.90;;;;;;2622033;46;20751;31
2022/05/22 10:24:15;;;;;;;;;;;18.80;99.90;;;;;;2621892;46;20765;31
2022/05/22 10:27:09;;;;;;;;;;;18.90;99.90;;;;;;2621953;46;19934;31
2022/05/22 10:29:48;;;;;;;;;;;19.00;99.90;;;;;;2622071;46;19941;31
2022/05/22 10:32:29;;;;;;;;;;;19.10;99.90;;;;;;2603525;54;19941;31
2022/05/22 10:35:08;;;;;;;;;;;19.20;99.90;;;;;;2603163;54;19935;31
2022/05/22 10:37:47;;;;;;;;;;;19.10;99.90;;;;;;2603076;54;19945;31
2022/05/22 10:42:44;;;;;;;;;;;19.00;99.90;;;;;;2603115;54;20765;31
2022/05/22 10:43:21;;;;;;;;;;;18.80;99.90;;;;;;2603508;54;19938;31
2022/05/22 10:45:58;;;;;;;;;;;18.50;99.90;;;;;;2603091;54;20010;31
2022/05/22 10:48:35;;;;;;;;;;;18.30;99.90;;;;;;2603473;54;20783;31
2022/05/22 10:51:11;;;;;;;;;;;18.20;99.90;;;;;;2603261;54;19961;31
2022/05/22 10:53:50;;;;;;;;;;;18.00;99.90;;;;;;2621394;46;21177;31
2022/05/22 10:56:28;;;;;;;;;;;18.10;99.90;;;;;;2621704;46;20723;31
2022/05/22 10:59:03;;;;;;;;;;;18.00;99.90;;;;;;2603428;54;20011;31
2022/05/22 11:01:40;;;;;;;;;;;17.90;99.90;;;;;;2603339;54;19935;31
2022/05/22 11:04:17;;;;;;;;;;;17.80;99.90;;;;;;2621995;46;19977;31
2022/05/22 11:06:55;;;;;;;;;;;17.90;99.90;;;;;;2603262;54;19946;31
2022/05/22 11:09:30;;;;;;;;;;;17.90;99.90;;;;;;2603025;54;22212;31
2022/05/22 11:12:11;;;;;;;;;;;18.00;99.90;;;;;;2621689;46;19935;31
2022/05/22 11:14:45;;;;;;;;;;;18.20;99.90;;;;;;2603217;54;19941;31
2022/05/22 11:17:21;;;;;;;;;;;18.30;99.90;;;;;;2602678;54;20825;31
2022/05/22 11:19:56;;;;;;;;;;;18.50;99.90;;;;;;2603208;54;21240;31
2022/05/22 11:22:33;;;;;;;;;;;18.50;99.90;;;;;;2621497;46;21248;31
2022/05/22 11:25:10;;;;;;;;;;;18.50;99.90;;;;;;2616828;46;20828;31
2022/05/22 11:27:56;;;;;;;;;;;18.50;99.90;;;;;;2602251;54;19949;31
2022/05/22 11:30:35;;;;;;;;;;;18.50;99.90;;;;;;2621822;46;20052;31
2022/05/22 11:33:29;;;;;;;;;;;18.60;99.90;;;;;;2621702;46;19993;31
2022/05/22 11:36:07;;;;;;;;;;;18.70;99.90;;;;;;2602851;54;19934;31
2022/05/22 11:38:45;;;;;;;;;;;18.80;99.90;;;;;;2602982;54;20627;31
2022/05/22 11:41:26;;;;;;;;;;;18.90;99.90;;;;;;2602700;54;19941;31
2022/05/22 11:44:21;;;;;;;;;;;19.00;99.90;;;;;;2602825;54;20769;31
2022/05/22 11:47:14;;;;;;;;;;;19.10;99.90;;;;;;2621347;46;19944;31
2022/05/22 11:49:54;;;;;;;;;;;19.30;99.90;;;;;;2603119;54;20775;31
2022/05/22 11:55:22;;;;;;;;;;;19.70;99.90;;;;;;2621876;46;20731;31
2022/05/22 11:58:10;;;;;;;;;;;19.90;99.90;;;;;;2613147;47;19935;31
2022/05/22 12:00:50;;;;;;;;;;;20.00;99.90;;;;;;2603006;54;20731;31
2022/05/22 12:03:27;;;;;;;;;;;20.10;99.90;;;;;;2607164;47;19938;31
2022/05/22 12:06:11;;;;;;;;;;;20.10;99.90;;;;;;2603085;54;20702;31
2022/05/22 12:09:03;;;;;;;;;;;20.20;99.90;;;;;;2621315;47;19947;31
2022/05/22 12:11:43;;;;;;;;;;;20.20;99.90;;;;;;2620864;47;20714;31
2022/05/22 12:14:22;;;;;;;;;;;20.30;99.90;;;;;;2602803;54;19954;31
2022/05/22 12:17:03;;;;;;;;;;;20.30;99.90;;;;;;2602153;54;21233;31
2022/05/22 12:19:42;;;;;;;;;;;20.20;99.90;;;;;;2602561;54;19941;31
2022/05/22 12:23:07;;;;;;;;;;;20.30;99.90;;;;;;2621593;47;20729;31
2022/05/22 12:25:25;;;;;;;;;;;20.30;99.90;;;;;;2602571;54;19957;31
2022/05/22 12:28:01;;;;;;;;;;;20.40;99.90;;;;;;2603518;54;19945;31
2022/05/22 12:30:42;;;;;;;;;;;20.60;99.90;;;;;;2603620;54;19938;31
2022/05/22 12:33:23;;;;;;;;;;;20.70;99.90;;;;;;2603667;54;19979;31
2022/05/22 12:36:02;;;;;;;;;;;20.60;99.90;;;;;;2603537;54;19977;31
2022/05/22 12:38:39;;;;;;;;;;;20.50;99.90;;;;;;2622141;46;19942;31
2022/05/22 12:41:19;;;;;;;;;;;20.40;99.90;;;;;;2621326;46;19931;31
2022/05/22 12:44:05;;;;;;;;;;;20.30;99.90;;;;;;2603985;54;19931;31
2022/05/22 12:47:13;;;;;;;;;;;20.20;99.90;;;;;;2603405;54;19935;31
2022/05/22 12:49:59;;;;;;;;;;;20.50;99.90;;;;;;2610641;46;20006;31
2022/05/22 12:52:39;;;;;;;;;;;20.70;99.90;;;;;;2603382;54;20741;31
2022/05/22 12:55:22;;;;;;;;;;;20.90;99.90;;;;;;2602656;54;21548;31
2022/05/22 12:57:57;;;;;;;;;;;21.00;99.90;;;;;;2603986;46;20678;31
2022/05/22 13:00:34;;;;;;;;;;;20.80;99.90;;;;;;2603718;54;22263;31
2022/05/22 13:03:09;;;;;;;;;;;20.70;99.90;;;;;;2610935;46;19954;31
2022/05/22 13:05:44;;;;;;;;;;;20.60;99.90;;;;;;2622328;46;19942;31
2022/05/22 13:08:41;;;;;;;;;;;20.60;99.90;;;;;;2603789;54;19934;31
2022/05/22 13:11:18;;;;;;;;;;;20.70;99.90;;;;;;2621960;46;19990;31
2022/05/22 13:14:17;;;;;;;;;;;20.80;99.90;;;;;;2621950;46;19935;31
2022/05/22 13:16:52;;;;;;;;;;;20.90;99.90;;;;;;2701864;39;21591;31
2022/05/22 13:19:28;;;;;;;;;;;21.00;99.90;;;;;;2603464;54;19934;31
2022/05/22 13:22:11;;;;;;;;;;;21.00;99.90;;;;;;2603320;54;19935;31
2022/05/22 13:24:54;;;;;;;;;;;21.10;99.90;;;;;;2603476;54;19934;31
2022/05/22 13:27:38;;;;;;;;;;;21.10;99.90;;;;;;2603542;54;20767;31
2022/05/22 13:30:20;;;;;;;;;;;21.10;99.90;;;;;;2603316;54;20807;31
2022/05/22 13:32:58;;;;;;;;;;;21.10;99.90;;;;;;2603485;54;19938;31
2022/05/22 13:35:34;;;;;;;;;;;21.00;99.90;;;;;;2622190;46;19980;31
2022/05/22 13:38:12;;;;;;;;;;;21.00;99.70;;;;;;2621968;46;19935;31
2022/05/22 13:40:51;;;;;;;;;;;21.10;99.90;;;;;;2603293;54;20783;31
2022/05/22 13:43:40;;;;;;;;;;;21.10;99.90;;;;;;2603591;54;20724;31
2022/05/22 13:46:33;;;;;;;;;;;21.00;99.70;;;;;;2622042;46;19935;31
2022/05/22 13:49:23;;;;;;;;;;;21.00;99.90;;;;;;2621928;46;20754;31
2022/05/22 13:54:52;;;;;;;;;;;20.70;99.00;;;;;;2603444;54;19935;31
2022/05/22 13:57:29;;;;;;;;;;;20.70;99.80;;;;;;2603391;54;21193;31
2022/05/22 14:00:08;;;;;;;;;;;20.60;99.20;;;;;;2603597;54;19935;31
2022/05/22 14:02:47;;;;;;;;;;;20.60;99.20;;;;;;2621832;46;19938;31
2022/05/22 14:05:23;;;;;;;;;;;20.50;99.60;;;;;;2603302;54;19997;31
2022/05/22 14:07:58;;;;;;;;;;;20.50;99.80;;;;;;2603468;54;20749;31
2022/05/22 14:10:34;;;;;;;;;;;20.50;99.50;;;;;;2603225;54;19938;31
2022/05/22 14:13:14;;;;;;;;;;;20.30;98.70;;;;;;2621851;46;19939;31
2022/05/22 14:15:56;;;;;;;;;;;20.30;98.80;;;;;;2602997;54;19943;31
2022/05/22 14:18:31;;;;;;;;;;;20.10;98.90;;;;;;2603167;54;19986;31
2022/05/22 14:21:08;;;;;;;;;;;20.10;99.20;;;;;;2621910;46;20703;31
2022/05/22 14:26:34;;;;;;;;;;;20.30;99.20;;;;;;2603174;54;19934;31
2022/05/22 14:29:09;;;;;;;;;;;20.40;98.50;;;;;;2603459;54;19934;31
2022/05/22 14:31:47;;;;;;;;;;;20.30;98.80;;;;;;2621517;46;20852;31
2022/05/22 14:34:26;;;;;;;;;;;20.30;99.30;;;;;;2603286;54;20768;31
2022/05/22 14:37:01;;;;;;;;;;;20.40;98.90;;;;;;2612600;46;19934;31
2022/05/22 14:39:36;;;;;;;;;;;20.40;97.80;;;;;;2602478;54;21237;31
2022/05/22 14:42:12;;;;;;;;;;;20.40;98.90;;;;;;2621995;46;20846;31
2022/05/22 14:44:46;;;;;;;;;;;20.40;98.20;;;;;;2621658;46;20017;31
2022/05/22 14:47:25;;;;;;;;;;;20.20;98.30;;;;;;2621363;46;19946;31
2022/05/22 14:50:03;;;;;;;;;;;20.20;98.50;;;;;;2602803;54;20010;31
2022/05/22 14:52:41;;;;;;;;;;;20.10;98.80;;;;;;2602960;54;19942;31
2022/05/22 14:55:19;;;;;;;;;;;20.10;99.50;;;;;;2602990;54;20789;31
2022/05/22 14:58:08;;;;;;;;;;;20.20;99.40;;;;;;2621771;46;19934;31
2022/05/22 15:00:46;;;;;;;;;;;20.30;99.50;;;;;;2621686;46;19943;31
2022/05/22 15:03:24;;;;;;;;;;;20.30;99.90;;;;;;2602939;54;19985;31
2022/05/22 15:06:05;;;;;;;;;;;20.30;98.10;;;;;;2621722;46;19941;31
2022/05/22 15:08:52;;;;;;;;;;;20.30;98.40;;;;;;2701419;39;20570;31
2022/05/22 15:11:27;;;;;;;;;;;20.30;98.00;;;;;;2621467;46;19934;31
2022/05/22 15:14:02;;;;;;;;;;;20.30;97.00;;;;;;2621766;46;19941;31
2022/05/22 15:16:40;;;;;;;;;;;20.20;97.80;;;;;;2602864;54;20814;31
2022/05/22 15:28:19;;;;;;;;;;;19.90;98.10;;;;;;2603178;54;20742;31
2022/05/22 15:30:54;;;;;;;;;;;19.90;99.90;;;;;;2602803;54;19935;31
2022/05/22 15:33:32;;;;;;;;;;;19.80;98.80;;;;;;2602811;54;19935;31
2022/05/22 15:36:12;;;;;;;;;;;19.70;98.50;;;;;;2621547;46;19990;31
2022/05/22 15:39:03;;;;;;;;;;;19.60;98.60;;;;;;2719993;39;21430;31
2022/05/22 15:41:56;;;;;;;;;;;19.50;99.40;;;;;;2603714;46;19942;31
2022/05/22 15:44:37;;;;;;;;;;;19.50;99.80;;;;;;2603094;54;20866;31
2022/05/22 15:47:14;;;;;;;;;;;19.40;99.90;;;;;;2602466;54;20783;31
2022/05/22 15:52:50;;;;;;;;;;;19.20;99.90;;;;;;2719952;39;20481;31
2022/05/22 15:55:25;;;;;;;;;;;19.10;99.90;;;;;;2621620;46;19942;31
2022/05/22 15:58:00;;;;;;;;;;;18.90;99.90;;;;;;2621631;47;19935;31
2022/05/22 16:00:38;;;;;;;;;;;18.80;99.90;;;;;;2619351;47;19954;31
2022/05/22 16:03:16;;;;;;;;;;;18.80;99.90;;;;;;2622196;46;21178;31
2022/05/22 16:05:51;;;;;;;;;;;18.80;99.90;;;;;;2603530;54;20779;31
2022/05/22 16:08:25;;;;;;;;;;;18.80;99.90;;;;;;2622046;46;20802;31
2022/05/22 16:11:01;;;;;;;;;;;18.80;99.90;;;;;;2603905;54;19934;31
2022/05/22 16:13:40;;;;;;;;;;;18.80;99.90;;;;;;2603651;54;19934;31
2022/05/22 16:16:23;;;;;;;;;;;18.80;99.90;;;;;;2603925;54;19935;31
2022/05/22 16:18:59;;;;;;;;;;;18.90;99.90;;;;;;2603529;54;20811;31